SBMQ/MCP METAR and TAF weather

Enter ICAO airport designator
Station Type Date Time Source
SBMQ METAR 2022/07/03 13:00 UTC NOAA

SBMQ 031300Z 09010KT 9999 SCT015 BKN016 BKN080 27/26 Q1015


Station Type Date Time Source
SBMQ Decoded METAR 2022/07/03 13:00 UTC NOAA

Macapa, Brazil (SBMQ) 00-02N 050-03W
Jul 03, 2022 - 09:00 AM EDT / 2022.07.03 1300 UTC
Wind: from the E (090 degrees) at 12 MPH (10 KT):0
Visibility: greater than 7 mile(s):0
Sky conditions: mostly cloudy
Temperature: 80 F (27 C)
Dew Point: 78 F (26 C)
Relative Humidity: 94%
Pressure (altimeter): 29.97 in. Hg (1015 hPa)
ob: SBMQ 031300Z 09010KT 9999 SCT015 BKN016 BKN080 27/26 Q1015
cycle: 13

Station Type Date Time Source
SBMQ TAF 2022/07/03 12:54 UTC NOAA

TAF SBMQ 030850Z 0312/0412 36005KT 9999 SCT015 TX33/0318Z TN24/0410Z
BECMG 0312/0314 08010KT PROB40
TEMPO 0318/0322 4000 SHRA BKN012 FEW025TCU
TEMPO 0400/0402 4000 TSRA BKN010 FEW025CB
BECMG 0402/0404 02005KT
BECMG 0407/0409 32005KT
BECMG 0410/0412 06005KT
RMK PHI

Example: see airport list